Time;durP1;ratioP1;P1;durP2;ratioP2;P2;SDS_P1;SDS_P2;PMS_P1;PMS_P2;Temp;Humidity;BMP_temperature;BMP_pressure;BME280_temperature;BME280_humidity;BME280_pressure;Samples;Min_cycle;Max_cycle;Signal;HPM_P1;HPM_P2
2021/08/10 00:01:42;;;;;;;;;;;;;;;29.16;35.76;99732.41;5111774;28;19955;-36
2021/08/10 00:04:07;;;;;;;;;;;;;;;28.73;36.40;99736.03;5112051;28;19908;-36
2021/08/10 00:06:32;;;;;;;;;;;;;;;28.77;36.30;99736.97;5111205;28;19947;-36
2021/08/10 00:08:57;;;;;;;;;;;;;;;28.81;36.14;99725.06;5111951;28;20286;-36
2021/08/10 00:11:23;;;;;;;;;;;;;;;29.05;35.74;99734.66;5111620;28;19908;-36
2021/08/10 00:13:48;;;;;;;;;;;;;;;29.25;35.26;99733.16;5111903;28;19907;-36
2021/08/10 00:16:13;;;;;;;;;;;;;;;29.37;34.89;99730.53;5093110;28;20374;-37
2021/08/10 00:18:38;;;;;;;;;;;;;;;29.31;35.35;99731.84;5111308;28;20359;-36
2021/08/10 00:21:04;;;;;;;;;;;;;;;29.46;35.01;99735.97;5111934;28;19919;-36
2021/08/10 00:23:29;;;;;;;;;;;;;;;29.57;34.76;99733.66;5111386;28;20392;-36
2021/08/10 00:25:54;;;;;;;;;;;;;;;29.49;35.34;99737.25;5111401;28;19907;-37
2021/08/10 00:28:20;;;;;;;;;;;;;;;29.49;34.88;99732.56;5111434;28;19908;-37
2021/08/10 00:30:45;;;;;;;;;;;;;;;29.46;35.05;99735.19;5111221;28;19992;-37
2021/08/10 00:33:11;;;;;;;;;;;;;;;29.52;35.03;99733.84;5111347;28;19912;-37
2021/08/10 00:35:36;;;;;;;;;;;;;;;29.49;35.41;99735.28;5111205;28;20311;-37
2021/08/10 00:38:01;;;;;;;;;;;;;;;29.49;35.25;99729.00;5111086;28;19908;-35
2021/08/10 00:40:28;;;;;;;;;;;;;;;29.34;35.20;99728.47;5111198;28;19912;-36
2021/08/10 00:42:53;;;;;;;;;;;;;;;29.20;35.62;99728.66;5111036;28;19907;-37
2021/08/10 00:45:19;;;;;;;;;;;;;;;29.13;35.37;99719.34;5110915;28;20291;-36
2021/08/10 00:47:44;;;;;;;;;;;;;;;28.65;36.14;99713.00;5111242;28;19911;-37
2021/08/10 00:50:09;;;;;;;;;;;;;;;28.50;36.28;99708.03;5111282;28;19915;-37
2021/08/10 00:52:35;;;;;;;;;;;;;;;28.55;36.15;99716.91;5110996;28;20002;-35
2021/08/10 00:55:01;;;;;;;;;;;;;;;28.45;36.06;99715.28;5111078;28;19907;-35
2021/08/10 00:57:26;;;;;;;;;;;;;;;28.44;35.99;99701.91;5110851;28;19908;-36
2021/08/10 00:59:51;;;;;;;;;;;;;;;28.55;35.51;99700.47;5110851;28;19916;-36
2021/08/10 01:02:16;;;;;;;;;;;;;;;28.53;35.61;99704.69;5110805;28;19907;-36
2021/08/10 01:04:42;;;;;;;;;;;;;;;28.25;35.88;99707.72;5110887;28;19914;-36
2021/08/10 01:07:07;;;;;;;;;;;;;;;27.91;36.45;99703.06;5110485;28;19907;-36
2021/08/10 01:09:32;;;;;;;;;;;;;;;27.69;36.97;99702.03;5110876;28;20007;-36
2021/08/10 01:12:08;;;;;;;;;;;;;;;27.49;37.50;99704.25;5110728;28;20002;-35
2021/08/10 01:14:43;;;;;;;;;;;;;;;27.56;37.27;99686.59;5111000;28;20322;-36
2021/08/10 01:17:14;;;;;;;;;;;;;;;27.90;36.90;99705.00;5111271;28;19973;-36
2021/08/10 01:19:58;;;;;;;;;;;;;;;28.02;36.41;99707.09;5096510;28;19914;-36
2021/08/10 01:22:23;;;;;;;;;;;;;;;27.60;37.46;99709.41;5114814;28;19911;-36
2021/08/10 01:25:15;;;;;;;;;;;;;;;28.08;36.65;99703.88;5096645;28;19915;-36
2021/08/10 01:27:46;;;;;;;;;;;;;;;28.21;36.51;99702.09;5083309;28;19953;-36
2021/08/10 01:30:22;;;;;;;;;;;;;;;28.29;36.74;99708.69;5114684;28;19912;-35
2021/08/10 01:32:47;;;;;;;;;;;;;;;28.39;36.41;99711.09;5096667;28;19908;-35
2021/08/10 01:35:13;;;;;;;;;;;;;;;28.32;36.07;99708.06;5114746;28;20244;-35
2021/08/10 01:37:38;;;;;;;;;;;;;;;27.93;36.74;99709.00;5096261;28;19911;-35
2021/08/10 01:40:05;;;;;;;;;;;;;;;27.99;36.97;99702.28;5096404;28;19920;-36
2021/08/10 01:42:30;;;;;;;;;;;;;;;28.36;36.46;99703.53;5096162;28;20343;-36
2021/08/10 01:44:56;;;;;;;;;;;;;;;28.55;35.86;99695.00;5096333;28;19915;-37
2021/08/10 01:47:22;;;;;;;;;;;;;;;27.87;36.56;99700.94;5096624;28;20371;-36
2021/08/10 01:49:47;;;;;;;;;;;;;;;28.27;36.26;99698.09;5114440;28;19928;-35
2021/08/10 01:52:13;;;;;;;;;;;;;;;28.04;36.10;99693.91;5096073;28;19943;-35
2021/08/10 01:54:39;;;;;;;;;;;;;;;27.90;36.08;99688.59;5096012;28;19907;-36
2021/08/10 01:57:04;;;;;;;;;;;;;;;27.50;36.91;99688.66;5095657;28;20007;-36
2021/08/10 01:59:30;;;;;;;;;;;;;;;27.75;36.39;99691.75;5114122;28;19915;-36
2021/08/10 02:01:55;;;;;;;;;;;;;;;27.95;36.07;99690.34;5095860;28;19912;-37
2021/08/10 02:04:22;;;;;;;;;;;;;;;28.09;35.59;99691.00;5114245;28;19957;-37
2021/08/10 02:06:47;;;;;;;;;;;;;;;28.20;35.42;99694.22;5114071;28;19908;-37
2021/08/10 02:09:12;;;;;;;;;;;;;;;28.13;35.77;99688.44;5114165;28;19914;-37
2021/08/10 02:11:38;;;;;;;;;;;;;;;28.08;36.02;99687.47;5095675;28;20291;-37
2021/08/10 02:14:03;;;;;;;;;;;;;;;28.26;35.73;99687.47;5095507;28;19907;-37
2021/08/10 02:16:28;;;;;;;;;;;;;;;28.36;35.66;99689.84;5095945;28;19912;-36
2021/08/10 02:18:54;;;;;;;;;;;;;;;28.24;35.96;99696.00;5113895;28;19959;-36
2021/08/10 02:21:22;;;;;;;;;;;;;;;27.99;36.41;99694.06;5113918;28;19912;-36
2021/08/10 02:23:47;;;;;;;;;;;;;;;27.98;36.51;99686.97;5113894;28;19914;-36
2021/08/10 02:26:12;;;;;;;;;;;;;;;28.16;36.04;99693.25;5095502;28;19912;-36
2021/08/10 02:28:38;;;;;;;;;;;;;;;27.95;36.57;99699.38;5113395;28;19907;-36
2021/08/10 02:31:03;;;;;;;;;;;;;;;27.91;36.53;99700.31;5113763;28;19912;-37
2021/08/10 02:33:29;;;;;;;;;;;;;;;27.88;36.59;99699.84;5095505;28;19915;-36
2021/08/10 02:35:55;;;;;;;;;;;;;;;27.87;36.84;99702.84;5095299;28;20445;-36
2021/08/10 02:38:21;;;;;;;;;;;;;;;28.00;36.45;99704.66;5094975;28;19914;-35
2021/08/10 02:40:46;;;;;;;;;;;;;;;28.14;36.20;99704.53;5095146;28;19912;-36
2021/08/10 02:43:11;;;;;;;;;;;;;;;28.28;36.08;99701.63;5095198;28;20336;-35
2021/08/10 02:45:37;;;;;;;;;;;;;;;28.33;35.96;99704.19;5095309;28;19957;-36
2021/08/10 02:48:02;;;;;;;;;;;;;;;28.05;36.41;99709.19;5113265;28;19946;-36
2021/08/10 02:50:28;;;;;;;;;;;;;;;28.23;36.44;99707.25;5113019;28;19916;-36
2021/08/10 02:52:54;;;;;;;;;;;;;;;28.07;36.70;99707.72;5113323;28;19908;-36
2021/08/10 02:55:21;;;;;;;;;;;;;;;28.02;36.90;99696.94;5112997;28;20005;-36
2021/08/10 02:57:52;;;;;;;;;;;;;;;28.11;36.70;99702.44;5113109;28;19908;-36
2021/08/10 03:00:17;;;;;;;;;;;;;;;28.28;36.27;99707.09;5094846;28;19912;-36
2021/08/10 03:02:43;;;;;;;;;;;;;;;28.36;36.56;99709.00;5094836;28;19969;-37
2021/08/10 03:05:10;;;;;;;;;;;;;;;28.38;36.63;99714.97;5113862;28;20383;-36
2021/08/10 03:07:36;;;;;;;;;;;;;;;28.26;36.86;99712.88;5094665;28;20374;-37
2021/08/10 03:10:02;;;;;;;;;;;;;;;28.22;36.58;99714.66;5094648;28;19917;-36
2021/08/10 03:12:28;;;;;;;;;;;;;;;28.25;36.55;99715.94;5112678;28;19908;-36
2021/08/10 03:14:54;;;;;;;;;;;;;;;28.39;36.29;99718.53;5112986;28;20006;-37
2021/08/10 03:17:19;;;;;;;;;;;;;;;28.33;36.31;99717.06;5112607;28;20027;-36
2021/08/10 03:19:44;;;;;;;;;;;;;;;28.34;36.41;99726.88;5112811;28;19911;-37
2021/08/10 03:22:10;;;;;;;;;;;;;;;28.28;36.68;99720.78;5112462;28;19920;-36
2021/08/10 03:24:35;;;;;;;;;;;;;;;28.30;37.08;99728.66;5094088;28;19918;-37
2021/08/10 03:27:01;;;;;;;;;;;;;;;28.36;37.04;99739.09;5094046;28;19911;-36
2021/08/10 03:29:26;;;;;;;;;;;;;;;28.27;37.12;99738.31;5094220;28;19918;-36
2021/08/10 03:31:51;;;;;;;;;;;;;;;28.21;37.42;99737.66;5112362;28;19907;-37
2021/08/10 03:34:17;;;;;;;;;;;;;;;28.20;37.45;99744.25;5112312;28;19914;-36
2021/08/10 03:36:43;;;;;;;;;;;;;;;27.99;37.88;99746.81;5094062;28;19919;-36
2021/08/10 03:39:08;;;;;;;;;;;;;;;27.41;39.27;99753.41;5112220;28;20359;-36
2021/08/10 03:41:33;;;;;;;;;;;;;;;27.30;39.65;99750.13;5093114;28;19938;-37
2021/08/10 03:43:59;;;;;;;;;;;;;;;27.39;39.49;99752.91;5112176;28;19943;-37
2021/08/10 03:46:24;;;;;;;;;;;;;;;27.34;39.81;99761.22;5094205;28;19959;-36
2021/08/10 03:48:49;;;;;;;;;;;;;;;27.51;39.36;99750.38;5093759;28;19907;-36
2021/08/10 03:51:15;;;;;;;;;;;;;;;27.67;39.06;99754.28;5093757;28;19911;-36
2021/08/10 03:53:40;;;;;;;;;;;;;;;27.68;39.05;99758.63;5111947;28;19939;-36
2021/08/10 03:56:05;;;;;;;;;;;;;;;27.67;39.32;99753.50;5112255;28;20021;-40
2021/08/10 03:58:32;;;;;;;;;;;;;;;27.68;39.10;99755.91;5077138;28;20295;-37
2021/08/10 04:00:58;;;;;;;;;;;;;;;27.72;39.13;99752.53;5093999;28;19952;-37
2021/08/10 04:03:24;;;;;;;;;;;;;;;27.64;39.26;99745.91;5093646;28;20012;-36
2021/08/10 04:05:50;;;;;;;;;;;;;;;27.71;39.28;99754.47;5093811;28;20371;-36
2021/08/10 04:08:15;;;;;;;;;;;;;;;27.87;38.95;99747.44;5093625;28;19912;-36
2021/08/10 04:10:41;;;;;;;;;;;;;;;27.86;39.03;99755.94;5111914;28;20355;-37
2021/08/10 04:13:10;;;;;;;;;;;;;;;28.08;38.45;99757.75;5093401;28;19932;-37
2021/08/10 04:15:53;;;;;;;;;;;;;;;27.90;38.58;99769.81;5111697;28;19911;-37
2021/08/10 04:18:19;;;;;;;;;;;;;;;28.07;38.01;99758.91;5093273;28;19924;-36
2021/08/10 04:20:48;;;;;;;;;;;;;;;27.63;39.06;99764.25;5111510;28;19964;-37
2021/08/10 04:23:13;;;;;;;;;;;;;;;27.52;39.34;99773.06;5111661;28;19908;-36
2021/08/10 04:25:38;;;;;;;;;;;;;;;27.24;39.76;99779.47;5111437;28;19994;-36
2021/08/10 04:28:04;;;;;;;;;;;;;;;27.42;39.50;99774.16;5111407;28;19915;-36
2021/08/10 04:30:29;;;;;;;;;;;;;;;27.59;39.35;99759.75;5111697;28;19911;-36
2021/08/10 04:32:54;;;;;;;;;;;;;;;27.49;39.69;99769.00;5111473;28;19911;-36
2021/08/10 04:35:20;;;;;;;;;;;;;;;27.92;38.43;99762.91;5111297;28;19915;-36
2021/08/10 04:37:45;;;;;;;;;;;;;;;28.02;38.28;99769.97;5111211;28;19915;-36
2021/08/10 04:40:10;;;;;;;;;;;;;;;27.90;38.49;99775.28;5111231;28;20390;-37
2021/08/10 04:42:36;;;;;;;;;;;;;;;27.92;38.58;99771.09;5111323;28;19957;-37
2021/08/10 04:45:01;;;;;;;;;;;;;;;28.03;38.09;99766.13;5111237;28;20077;-37
2021/08/10 04:47:26;;;;;;;;;;;;;;;28.15;37.93;99781.91;5111164;28;19912;-37
2021/08/10 04:49:52;;;;;;;;;;;;;;;28.23;37.44;99773.69;5111422;28;19907;-37
2021/08/10 04:52:17;;;;;;;;;;;;;;;28.16;37.53;99788.97;5110869;28;19914;-36
2021/08/10 04:54:43;;;;;;;;;;;;;;;28.01;37.81;99793.78;5110935;28;19907;-37
2021/08/10 04:57:08;;;;;;;;;;;;;;;27.67;39.00;99787.09;5111019;28;19918;-36
2021/08/10 04:59:33;;;;;;;;;;;;;;;27.57;39.18;99789.28;5110983;28;20306;-37
2021/08/10 05:01:58;;;;;;;;;;;;;;;27.94;38.28;99782.50;5110478;28;19947;-37
2021/08/10 05:04:24;;;;;;;;;;;;;;;28.06;38.13;99779.97;5111059;28;20348;-36
2021/08/10 05:06:50;;;;;;;;;;;;;;;28.06;38.55;99787.34;5110786;28;19907;-37
2021/08/10 05:09:16;;;;;;;;;;;;;;;28.36;38.43;99795.75;5110864;28;20021;-36
2021/08/10 05:11:41;;;;;;;;;;;;;;;28.43;37.65;99787.88;5110792;28;20389;-36
2021/08/10 05:14:06;;;;;;;;;;;;;;;28.63;37.75;99789.19;5111255;28;19931;-36
2021/08/10 05:16:31;;;;;;;;;;;;;;;29.08;36.74;99790.72;5110642;28;20314;-35
2021/08/10 05:18:57;;;;;;;;;;;;;;;29.50;35.86;99796.41;5110706;28;19977;-35
2021/08/10 05:21:22;;;;;;;;;;;;;;;29.53;36.33;99796.56;5110412;28;19916;-37
2021/08/10 05:23:47;;;;;;;;;;;;;;;29.60;36.19;99787.81;5110766;28;19907;-36
2021/08/10 05:26:13;;;;;;;;;;;;;;;29.52;36.57;99805.13;5110663;28;20006;-37
2021/08/10 05:28:38;;;;;;;;;;;;;;;29.66;36.57;99804.88;5110791;28;19912;-37
2021/08/10 05:31:03;;;;;;;;;;;;;;;30.08;36.09;99803.03;5110700;28;19908;-37
2021/08/10 05:33:28;;;;;;;;;;;;;;;30.24;36.00;99800.53;5110650;28;20389;-46
2021/08/10 05:35:55;;;;;;;;;;;;;;;30.70;35.00;99787.72;5110101;28;19911;-36
2021/08/10 05:38:20;;;;;;;;;;;;;;;31.03;34.33;99792.44;5110772;28;19914;-36
2021/08/10 05:40:45;;;;;;;;;;;;;;;31.83;33.19;99790.34;5110581;28;20310;-37
2021/08/10 05:43:10;;;;;;;;;;;;;;;32.41;31.31;99790.94;5110628;28;20014;-37
2021/08/10 05:45:36;;;;;;;;;;;;;;;32.95;30.83;99795.19;5110712;28;19964;-38
2021/08/10 05:48:01;;;;;;;;;;;;;;;33.32;29.93;99797.78;5110491;28;19912;-36
2021/08/10 05:50:26;;;;;;;;;;;;;;;33.58;29.86;99799.97;5110370;28;19907;-36
2021/08/10 05:52:53;;;;;;;;;;;;;;;33.51;30.20;99794.31;5110543;28;19979;-36
2021/08/10 05:55:18;;;;;;;;;;;;;;;34.12;29.25;99806.75;5110228;28;19908;-36
2021/08/10 05:57:43;;;;;;;;;;;;;;;34.19;29.09;99800.59;5110173;28;19915;-35
2021/08/10 06:00:09;;;;;;;;;;;;;;;33.83;29.34;99802.53;5110143;28;20006;-35
2021/08/10 06:02:34;;;;;;;;;;;;;;;34.39;28.14;99810.50;5110914;28;20009;-36
2021/08/10 06:05:00;;;;;;;;;;;;;;;34.46;27.76;99807.09;5113622;28;19946;-37
2021/08/10 06:07:25;;;;;;;;;;;;;;;34.78;27.32;99807.75;5114222;28;20014;-37
2021/08/10 06:09:50;;;;;;;;;;;;;;;35.03;26.85;99812.94;5113888;28;19924;-36
2021/08/10 06:12:15;;;;;;;;;;;;;;;35.13;27.15;99814.31;5114219;28;19933;-37
2021/08/10 06:14:41;;;;;;;;;;;;;;;35.62;26.46;99816.34;5096015;28;19915;-38
2021/08/10 06:17:06;;;;;;;;;;;;;;;35.72;26.50;99813.00;5114070;28;19926;-36
2021/08/10 06:19:31;;;;;;;;;;;;;;;36.25;26.12;99814.13;5113777;28;20381;-36
2021/08/10 06:21:57;;;;;;;;;;;;;;;36.98;24.97;99820.16;5114053;28;19911;-37
2021/08/10 06:24:23;;;;;;;;;;;;;;;37.45;23.90;99823.38;5113800;28;19930;-38
2021/08/10 06:26:48;;;;;;;;;;;;;;;37.77;23.40;99822.84;5113726;28;19907;-37
2021/08/10 06:29:13;;;;;;;;;;;;;;;37.85;23.59;99813.38;5113590;28;19914;-37
2021/08/10 06:31:39;;;;;;;;;;;;;;;38.00;23.75;99811.50;5113783;28;19907;-37
2021/08/10 06:34:04;;;;;;;;;;;;;;;38.18;23.49;99803.31;5113791;28;20006;-38
2021/08/10 06:36:29;;;;;;;;;;;;;;;38.62;22.80;99811.41;5113193;28;19964;-38
2021/08/10 06:38:54;;;;;;;;;;;;;;;38.82;22.58;99803.53;5113527;28;20370;-38
2021/08/10 06:41:20;;;;;;;;;;;;;;;39.17;21.44;99804.81;5113421;28;19912;-37
2021/08/10 06:43:45;;;;;;;;;;;;;;;39.35;21.54;99806.78;5113223;28;19908;-38
2021/08/10 06:46:10;;;;;;;;;;;;;;;39.65;21.04;99806.41;5094877;28;19908;-38
2021/08/10 06:48:35;;;;;;;;;;;;;;;39.98;20.98;99807.16;5113486;28;19914;-38
2021/08/10 06:51:01;;;;;;;;;;;;;;;40.44;20.61;99804.22;5113396;28;19908;-38
2021/08/10 06:53:27;;;;;;;;;;;;;;;40.56;19.91;99788.25;5113688;28;19991;-38
2021/08/10 06:55:52;;;;;;;;;;;;;;;40.52;20.14;99793.00;5113254;28;20299;-37
2021/08/10 06:58:17;;;;;;;;;;;;;;;40.60;20.09;99786.22;5113180;28;19908;-37
2021/08/10 07:00:43;;;;;;;;;;;;;;;40.18;19.66;99782.41;5113074;28;19912;-37
2021/08/10 07:03:08;;;;;;;;;;;;;;;40.20;19.95;99780.00;5112896;28;19908;-38
2021/08/10 07:05:34;;;;;;;;;;;;;;;40.01;20.44;99787.63;5112893;28;20008;-36
2021/08/10 07:07:59;;;;;;;;;;;;;;;40.58;19.47;99783.03;5113175;28;19908;-38
2021/08/10 07:10:24;;;;;;;;;;;;;;;40.63;19.88;99790.97;5112793;28;19911;-38
2021/08/10 07:12:49;;;;;;;;;;;;;;;41.09;19.11;99784.31;5112926;28;19907;-37
2021/08/10 07:15:15;;;;;;;;;;;;;;;41.02;18.80;99779.56;5112870;28;20377;-38
2021/08/10 07:17:40;;;;;;;;;;;;;;;41.44;18.27;99778.88;5112844;28;19920;-38
2021/08/10 07:20:05;;;;;;;;;;;;;;;41.10;18.72;99776.72;5112211;28;20491;-37
2021/08/10 07:22:31;;;;;;;;;;;;;;;41.64;18.43;99777.06;5112295;28;20018;-37
2021/08/10 07:24:56;;;;;;;;;;;;;;;40.93;19.04;99764.50;5112173;28;19907;-37
2021/08/10 07:27:21;;;;;;;;;;;;;;;41.36;18.46;99762.19;5112375;28;19965;-39
2021/08/10 07:29:47;;;;;;;;;;;;;;;40.75;19.41;99759.81;5112383;28;19947;-38
2021/08/10 07:32:12;;;;;;;;;;;;;;;40.67;19.46;99758.28;5112273;28;20344;-38
2021/08/10 07:34:38;;;;;;;;;;;;;;;41.32;18.99;99758.63;5093814;28;19915;-38
2021/08/10 07:37:03;;;;;;;;;;;;;;;41.98;17.75;99751.97;5112022;28;19908;-38
2021/08/10 07:39:28;;;;;;;;;;;;;;;42.25;17.46;99742.06;5112416;28;19908;-36
2021/08/10 07:41:54;;;;;;;;;;;;;;;42.70;17.02;99748.22;5112009;28;19969;-38
2021/08/10 07:44:19;;;;;;;;;;;;;;;43.18;17.02;99748.28;5112107;28;20002;-39
2021/08/10 07:46:44;;;;;;;;;;;;;;;42.88;17.06;99742.41;5112042;28;20270;-37
2021/08/10 07:49:09;;;;;;;;;;;;;;;41.97;17.61;99738.41;5111906;28;20068;-37
2021/08/10 07:51:35;;;;;;;;;;;;;;;42.21;17.13;99739.31;5111963;28;20003;-37
2021/08/10 07:54:00;;;;;;;;;;;;;;;42.21;17.13;99735.75;5111783;28;19976;-38
2021/08/10 07:56:25;;;;;;;;;;;;;;;42.15;17.28;99732.63;5111842;28;20247;-38
2021/08/10 07:58:51;;;;;;;;;;;;;;;41.63;17.67;99732.84;5111756;28;19965;-38
2021/08/10 08:01:16;;;;;;;;;;;;;;;41.85;18.03;99731.38;5111888;28;19961;-38
2021/08/10 08:03:41;;;;;;;;;;;;;;;41.67;18.03;99726.00;5112166;28;19957;-37
2021/08/10 08:06:06;;;;;;;;;;;;;;;42.29;17.14;99729.66;5111948;28;19912;-38
2021/08/10 08:08:32;;;;;;;;;;;;;;;42.39;17.02;99728.69;5111822;28;19907;-38
2021/08/10 08:10:57;;;;;;;;;;;;;;;42.59;16.69;99722.44;5111772;28;19908;-38
2021/08/10 08:13:24;;;;;;;;;;;;;;;43.04;16.68;99719.34;5111854;28;19924;-38
2021/08/10 08:15:49;;;;;;;;;;;;;;;42.99;16.51;99724.63;5111623;28;20056;-38
2021/08/10 08:18:15;;;;;;;;;;;;;;;42.53;16.82;99721.34;5111317;28;20022;-38
2021/08/10 08:20:40;;;;;;;;;;;;;;;42.60;17.14;99724.03;5111547;28;19911;-38
2021/08/10 08:23:05;;;;;;;;;;;;;;;42.67;16.86;99721.13;5111658;28;19908;-38
2021/08/10 08:25:32;;;;;;;;;;;;;;;43.23;16.41;99717.03;5111539;28;19926;-38
2021/08/10 08:27:57;;;;;;;;;;;;;;;44.16;15.23;99706.06;5111359;28;19907;-38
2021/08/10 08:30:22;;;;;;;;;;;;;;;44.04;15.55;99713.06;5111878;28;19954;-38
2021/08/10 08:32:48;;;;;;;;;;;;;;;44.05;14.91;99700.63;5093503;28;19908;-38
2021/08/10 08:35:13;;;;;;;;;;;;;;;43.66;15.00;99703.03;5111490;28;19908;-39
2021/08/10 08:37:39;;;;;;;;;;;;;;;43.88;15.03;99702.59;5111531;28;19907;-38
2021/08/10 08:40:05;;;;;;;;;;;;;;;43.89;14.78;99704.19;5111685;28;20039;-38
2021/08/10 08:42:30;;;;;;;;;;;;;;;43.25;15.98;99708.97;5111462;28;19907;-39
2021/08/10 08:44:55;;;;;;;;;;;;;;;44.04;15.57;99696.25;5111460;28;20312;-39
2021/08/10 08:47:21;;;;;;;;;;;;;;;44.62;14.55;99688.16;5111258;28;19914;-38
2021/08/10 08:49:47;;;;;;;;;;;;;;;44.35;15.58;99690.41;5111100;28;19944;-39
2021/08/10 08:52:12;;;;;;;;;;;;;;;44.24;15.00;99688.63;5111382;28;19908;-39
2021/08/10 08:54:38;;;;;;;;;;;;;;;43.98;15.89;99689.59;5111274;28;20060;-38
2021/08/10 08:57:03;;;;;;;;;;;;;;;44.76;15.14;99686.22;5110990;28;20006;-39
2021/08/10 08:59:28;;;;;;;;;;;;;;;45.09;14.17;99692.63;5111003;28;19914;-39
2021/08/10 09:01:54;;;;;;;;;;;;;;;44.62;14.83;99678.97;5092601;28;19915;-39
2021/08/10 09:04:19;;;;;;;;;;;;;;;44.03;14.57;99673.03;5110996;28;19995;-39
2021/08/10 09:06:45;;;;;;;;;;;;;;;43.56;15.39;99675.22;5110850;28;19960;-39
2021/08/10 09:09:26;;;;;;;;;;;;;;;44.33;14.73;99678.81;5111168;28;19911;-39
2021/08/10 09:11:52;;;;;;;;;;;;;;;45.11;14.70;99675.31;5110931;28;19915;-39
2021/08/10 09:14:18;;;;;;;;;;;;;;;45.43;13.77;99668.84;5111102;28;20398;-39
2021/08/10 09:17:02;;;;;;;;;;;;;;;44.26;13.71;99660.94;5111044;28;19911;-39
2021/08/10 09:19:40;;;;;;;;;;;;;;;45.11;13.43;99661.28;5110807;28;19998;-39
2021/08/10 09:22:32;;;;;;;;;;;;;;;45.70;13.53;99668.50;5111052;28;20414;-39
2021/08/10 09:24:59;;;;;;;;;;;;;;;45.68;13.20;99662.56;5106899;28;19907;-39
2021/08/10 09:27:34;;;;;;;;;;;;;;;46.02;13.39;99661.91;5110506;28;19942;-38
2021/08/10 09:30:00;;;;;;;;;;;;;;;43.55;14.28;99652.03;5110696;28;19908;-38
2021/08/10 09:32:26;;;;;;;;;;;;;;;45.11;13.41;99653.66;5110567;28;19947;-37
2021/08/10 09:35:13;;;;;;;;;;;;;;;44.45;13.20;99653.66;5110868;28;19908;-38
2021/08/10 09:37:38;;;;;;;;;;;;;;;43.18;14.33;99656.72;5110537;28;19907;-39
2021/08/10 09:40:22;;;;;;;;;;;;;;;42.22;15.05;99647.91;5095958;28;20355;-39
2021/08/10 09:42:48;;;;;;;;;;;;;;;41.74;15.95;99639.34;5114740;28;19912;-38
2021/08/10 09:45:13;;;;;;;;;;;;;;;41.73;16.51;99645.34;5114977;28;19907;-38
2021/08/10 09:47:39;;;;;;;;;;;;;;;43.12;15.50;99645.22;5096212;28;20375;-39
2021/08/10 09:50:28;;;;;;;;;;;;;;;43.93;14.16;99637.66;5114454;28;20002;-39
2021/08/10 09:52:53;;;;;;;;;;;;;;;43.69;14.25;99631.34;5114511;28;20310;-39
2021/08/10 09:55:19;;;;;;;;;;;;;;;42.60;15.11;99637.34;5114512;28;19934;-38
2021/08/10 09:58:00;;;;;;;;;;;;;;;43.19;14.71;99637.94;5114542;28;19908;-39
2021/08/10 10:00:39;;;;;;;;;;;;;;;43.68;13.46;99627.75;5114359;28;19916;-39
2021/08/10 10:03:23;;;;;;;;;;;;;;;43.23;13.57;99631.03;5114038;28;19907;-39
2021/08/10 10:05:48;;;;;;;;;;;;;;;43.45;14.12;99628.63;5113955;28;19908;-38
2021/08/10 10:08:17;;;;;;;;;;;;;;;43.30;14.14;99628.13;5114407;28;19908;-38
2021/08/10 10:10:42;;;;;;;;;;;;;;;43.75;13.73;99621.22;5113630;28;19907;-38
2021/08/10 10:13:09;;;;;;;;;;;;;;;44.17;13.79;99623.53;5113780;28;19935;-38
2021/08/10 10:15:34;;;;;;;;;;;;;;;43.87;13.29;99614.97;5114458;28;19918;-39
2021/08/10 10:18:00;;;;;;;;;;;;;;;43.08;14.33;99621.34;5114314;28;19931;-38
2021/08/10 10:20:25;;;;;;;;;;;;;;;43.27;14.21;99623.34;5113713;28;19977;-38
2021/08/10 10:22:50;;;;;;;;;;;;;;;42.69;14.37;99611.59;5095795;28;19908;-38
2021/08/10 10:25:16;;;;;;;;;;;;;;;43.19;14.54;99607.16;5113857;28;19915;-38
2021/08/10 10:27:41;;;;;;;;;;;;;;;42.77;14.03;99602.66;5095702;28;19914;-39
2021/08/10 10:30:06;;;;;;;;;;;;;;;43.08;14.43;99605.31;5095622;28;19915;-38
2021/08/10 10:32:32;;;;;;;;;;;;;;;43.40;13.92;99598.34;5113946;28;20301;-38
2021/08/10 10:34:57;;;;;;;;;;;;;;;43.73;12.42;99593.63;5113924;28;19965;-39
2021/08/10 10:37:23;;;;;;;;;;;;;;;44.18;12.07;99592.25;5113721;28;19991;-39
2021/08/10 10:39:50;;;;;;;;;;;;;;;44.47;12.12;99585.94;5113829;28;19957;-39
2021/08/10 10:42:15;;;;;;;;;;;;;;;44.34;12.17;99587.88;5113588;28;19930;-38
2021/08/10 10:44:50;;;;;;;;;;;;;;;44.71;11.58;99580.94;5095436;28;19991;-38
2021/08/10 10:47:24;;;;;;;;;;;;;;;44.04;11.55;99554.13;5113733;28;19908;-37
2021/08/10 10:49:56;;;;;;;;;;;;;;;43.36;12.21;99568.84;5113344;28;19918;-38
2021/08/10 11:07:35;;;;;;;4.93;2.92;;;;;;;43.80;11.06;99538.69;5049403;27;20391;-39
2021/08/10 11:10:00;;;;;;;6.25;3.55;;;;;;;43.13;12.18;99537.66;5047665;28;20033;-39
2021/08/10 11:12:45;;;;;;;4.35;3.60;;;;;;;43.91;11.45;99537.22;5045936;28;20400;-39
2021/08/10 11:15:21;;;;;;;8.10;3.63;;;;;;;43.90;10.83;99535.63;5047286;28;20025;-37
2021/08/10 11:18:10;;;;;;;6.15;3.40;;;;;;;43.67;10.79;99532.94;5047405;28;20021;-39
2021/08/10 11:20:49;;;;;;;8.43;3.80;;;;;;;43.85;11.62;99535.34;5040797;28;20069;-38
2021/08/10 11:23:21;;;;;;;4.22;3.45;;;;;;;43.98;11.06;99529.84;5047330;28;20041;-39
2021/08/10 11:25:47;;;;;;;6.13;3.33;;;;;;;43.96;11.66;99530.28;5047060;28;20133;-39
2021/08/10 11:28:49;;;;;;;7.57;3.58;;;;;;;44.10;11.76;99517.97;5046862;28;20071;-38
2021/08/10 11:31:31;;;;;;;7.35;3.50;;;;;;;45.30;10.90;99514.38;5005595;28;20033;-39
2021/08/10 11:33:56;;;;;;;6.45;3.40;;;;;;;45.76;9.98;99512.19;5043274;28;20041;-38
2021/08/10 11:36:24;;;;;;;6.38;3.55;;;;;;;45.74;10.14;99514.66;5046955;28;20032;-37
2021/08/10 11:38:52;;;;;;;7.93;3.55;;;;;;;46.28;9.83;99503.69;5046981;28;20029;-38
2021/08/10 11:41:27;;;;;;;4.05;3.45;;;;;;;46.61;9.95;99499.31;5047192;28;20029;-36
2021/08/10 11:43:55;;;;;;;8.82;4.20;;;;;;;46.94;9.97;99498.94;5045840;28;20032;-40
2021/08/10 11:46:24;;;;;;;4.53;3.80;;;;;;;46.69;10.49;99490.59;5046525;28;20061;-38
2021/08/10 11:48:51;;;;;;;5.43;3.78;;;;;;;46.57;11.03;99493.00;5046927;28;20041;-38
2021/08/10 11:51:19;;;;;;;7.85;3.72;;;;;;;45.30;10.33;99482.69;5046716;28;20512;-38
2021/08/10 11:53:46;;;;;;;7.97;3.90;;;;;;;44.89;11.07;99477.44;5046710;28;20572;-38
2021/08/10 11:56:37;;;;;;;8.05;3.88;;;;;;;45.21;10.35;99480.53;5046862;28;20502;-38
2021/08/10 11:59:04;;;;;;;4.55;3.65;;;;;;;45.52;10.66;99478.00;5046619;28;20079;-38
2021/08/10 12:01:30;;;;;;;8.80;3.80;;;;;;;45.80;10.28;99473.50;5046177;28;20112;-38
2021/08/10 12:04:11;;;;;;;5.07;3.92;;;;;;;44.68;11.08;99466.81;5046318;28;20108;-38
2021/08/10 12:06:37;;;;;;;5.95;4.10;;;;;;;43.22;12.22;99464.28;5041766;28;20104;-39
2021/08/10 12:09:09;;;;;;;5.93;4.10;;;;;;;42.96;12.43;99458.47;5032048;28;20033;-38
2021/08/10 12:11:35;;;;;;;5.57;4.20;;;;;;;43.95;11.96;99452.25;5033153;28;20104;-37
2021/08/10 12:14:10;;;;;;;5.05;3.90;;;;;;;45.02;11.15;99448.63;5033035;28;20029;-39
2021/08/10 12:16:36;;;;;;;8.13;3.72;;;;;;;44.68;11.43;99447.94;5033285;28;20022;-39
2021/08/10 12:19:01;;;;;;;6.60;4.20;;;;;;;43.85;11.75;99446.50;5032894;28;20033;-38
2021/08/10 12:21:30;;;;;;;7.03;3.90;;;;;;;43.68;11.76;99436.47;5031831;28;20029;-38
2021/08/10 12:23:56;;;;;;;6.65;3.72;;;;;;;43.00;12.25;99441.59;5031854;28;20033;-38
2021/08/10 12:26:21;;;;;;;7.50;4.22;;;;;;;43.79;12.20;99427.84;5032831;28;20029;-38
2021/08/10 12:28:54;;;;;;;6.53;4.60;;;;;;;43.80;11.80;99432.25;5032806;28;20033;-38
2021/08/10 12:31:19;;;;;;;7.88;4.20;;;;;;;43.94;12.09;99429.06;5033142;28;20029;-38
2021/08/10 12:33:52;;;;;;;6.05;4.50;;;;;;;43.96;11.87;99421.00;5032519;28;20543;-39
2021/08/10 12:36:18;;;;;;;5.90;4.15;;;;;;;43.82;11.87;99419.34;5032533;28;20040;-38
2021/08/10 12:38:45;;;;;;;4.43;4.03;;;;;;;43.58;11.95;99417.94;5032426;28;20033;-38
2021/08/10 12:41:10;;;;;;;4.88;4.18;;;;;;;42.84;12.69;99413.53;5032245;28;20029;-37
2021/08/10 12:43:36;;;;;;;9.45;4.15;;;;;;;42.50;12.66;99406.22;5031293;28;20087;-38
2021/08/10 12:46:37;;;;;;;8.35;4.35;;;;;;;41.85;13.20;99410.16;5031085;28;20022;-38
2021/08/10 12:49:16;;;;;;;7.25;4.13;;;;;;;42.46;12.91;99403.53;4990758;28;20136;-37
2021/08/10 12:51:50;;;;;;;6.13;4.10;;;;;;;42.19;13.52;99401.59;5027561;28;20116;-38